createdAt,value
2019-04-28T00:00:03.963Z,39.18
2019-04-28T00:02:36.184Z,39.20
2019-04-28T00:03:04.779Z,39.74
2019-04-28T00:04:05.718Z,41.02
2019-04-28T00:05:04.167Z,41.96
2019-04-28T00:06:03.740Z,39.90
2019-04-28T00:07:03.677Z,40.03
2019-04-28T00:08:03.829Z,38.96
2019-04-28T00:09:03.701Z,39.39
2019-04-28T00:10:14.257Z,39.73
2019-04-28T00:11:06.459Z,38.83
2019-04-28T00:12:03.747Z,38.71
2019-04-28T00:13:05.378Z,39.17
2019-04-28T00:14:03.648Z,39.74
2019-04-28T00:15:03.896Z,39.72
2019-04-28T00:16:03.618Z,40.09
2019-04-28T00:17:04.429Z,41.50
2019-04-28T00:18:04.211Z,39.61
2019-04-28T00:19:04.661Z,39.90
2019-04-28T00:20:04.198Z,38.87
2019-04-28T00:21:04.428Z,39.36
2019-04-28T00:22:03.618Z,39.32
2019-04-28T00:23:04.194Z,39.71
2019-04-28T00:24:04.716Z,39.43
2019-04-28T00:25:03.565Z,39.14
2019-04-28T00:26:03.624Z,39.56
2019-04-28T00:27:03.620Z,40.47
2019-04-28T00:28:03.546Z,40.48
2019-04-28T00:29:03.590Z,42.32
2019-04-28T00:30:03.694Z,40.87
2019-04-28T00:31:03.549Z,40.61
2019-04-28T00:32:04.558Z,39.01
2019-04-28T00:33:03.567Z,39.76
2019-04-28T00:34:04.469Z,39.30
2019-04-28T00:35:03.530Z,39.12
2019-04-28T00:36:03.509Z,40.74
2019-04-28T00:37:03.584Z,40.08
2019-04-28T00:38:06.431Z,41.77
2019-04-28T00:39:04.489Z,41.99
2019-04-28T00:40:04.528Z,40.25
2019-04-28T00:41:03.485Z,39.79
2019-04-28T00:42:03.478Z,41.13
2019-04-28T00:43:03.528Z,40.94
2019-04-28T00:44:03.439Z,40.21
2019-04-28T00:45:03.533Z,40.17
2019-04-28T00:46:03.430Z,39.51
2019-04-28T00:47:03.430Z,39.98
2019-04-28T00:48:03.414Z,41.02
2019-04-28T00:49:03.416Z,39.89
2019-04-28T00:50:03.377Z,41.04
2019-04-28T00:51:03.637Z,39.68
2019-04-28T00:52:03.457Z,39.38
2019-04-28T00:55:39.598Z,41.25
2019-04-28T00:56:42.027Z,41.89
2019-04-28T00:57:40.995Z,41.20
2019-04-28T00:58:41.684Z,41.53
2019-04-28T00:59:52.146Z,42.31
2019-04-28T01:00:41.631Z,42.63
2019-04-28T01:01:40.693Z,42.18
2019-04-28T01:02:41.248Z,39.87
2019-04-28T01:03:42.084Z,39.68
2019-04-28T01:04:41.271Z,39.40
2019-04-28T01:05:41.183Z,40.03
2019-04-28T01:06:40.575Z,41.73
2019-04-28T01:07:41.388Z,42.72
2019-04-28T01:08:39.634Z,40.21
2019-04-28T01:09:41.571Z,40.66
2019-04-28T01:10:41.056Z,39.78
2019-04-28T01:11:41.411Z,40.36
2019-04-28T01:12:41.131Z,39.60
2019-04-28T01:13:41.991Z,39.46
2019-04-28T01:14:40.976Z,38.97
2019-04-28T01:15:39.746Z,39.66
2019-04-28T01:16:40.547Z,39.60
2019-04-28T01:17:39.843Z,39.00
2019-04-28T01:18:40.610Z,39.72
2019-04-28T01:19:39.920Z,39.39
2019-04-28T01:23:16.268Z,39.23
2019-04-28T01:24:32.109Z,39.46
2019-04-28T01:25:15.960Z,38.80
2019-04-28T01:26:15.935Z,39.96
2019-04-28T01:27:15.985Z,39.72
2019-04-28T01:28:15.951Z,39.13
2019-04-28T01:29:16.103Z,38.87
2019-04-28T01:30:16.871Z,39.42
2019-04-28T01:31:15.998Z,39.40
2019-04-28T01:32:16.025Z,39.09
2019-04-28T01:33:15.926Z,40.35
2019-04-28T01:34:15.952Z,39.16
2019-04-28T01:35:16.013Z,40.07
2019-04-28T01:36:15.895Z,39.75
2019-04-28T01:37:16.041Z,40.22
2019-04-28T01:38:15.890Z,40.49
2019-04-28T01:39:15.929Z,39.69
2019-04-28T01:40:15.920Z,39.90
2019-04-28T01:41:15.876Z,40.65
2019-04-28T01:42:15.807Z,40.43
2019-04-28T01:43:15.868Z,39.95
2019-04-28T01:44:15.803Z,40.48
2019-04-28T01:45:15.838Z,40.23
2019-04-28T01:46:15.833Z,38.78
2019-04-28T01:47:15.858Z,38.52
2019-04-28T01:48:15.862Z,38.75
2019-04-28T01:49:15.845Z,38.74
2019-04-28T01:50:15.888Z,39.57
2019-04-28T01:51:15.760Z,39.08
2019-04-28T01:52:15.799Z,44.28
2019-04-28T01:53:15.785Z,43.76
2019-04-28T01:54:16.361Z,39.53
2019-04-28T01:55:15.727Z,38.68
2019-04-28T01:56:16.532Z,39.56
2019-04-28T01:57:15.844Z,39.39
2019-04-28T01:58:16.535Z,38.72
2019-04-28T01:59:15.798Z,39.16
2019-04-28T02:00:22.910Z,40.29
2019-04-28T02:01:17.730Z,39.80
2019-04-28T02:02:15.770Z,39.96
2019-04-28T02:03:15.709Z,39.53
2019-04-28T02:04:15.715Z,38.63
2019-04-28T02:05:15.803Z,38.96
2019-04-28T02:06:15.731Z,38.85
2019-04-28T02:07:15.645Z,39.37
2019-04-28T02:08:15.751Z,39.85
2019-04-28T02:09:15.773Z,38.53
2019-04-28T02:10:15.662Z,39.51
2019-04-28T02:11:15.775Z,40.21
2019-04-28T02:12:15.650Z,39.56
2019-04-28T02:13:15.674Z,39.81
2019-04-28T02:14:15.647Z,38.53
2019-04-28T02:15:15.690Z,38.52
2019-04-28T02:16:15.616Z,39.89
2019-04-28T02:17:15.622Z,42.10
2019-04-28T02:18:15.671Z,41.65
2019-04-28T02:19:15.626Z,40.25
2019-04-28T02:20:15.598Z,39.47
2019-04-28T02:21:16.585Z,38.97
2019-04-28T02:22:15.606Z,38.66
2019-04-28T02:23:15.551Z,39.65
2019-04-28T02:24:16.587Z,39.89
2019-04-28T02:25:15.656Z,43.02
2019-04-28T02:26:15.577Z,40.99
2019-04-28T02:27:15.540Z,42.47
2019-04-28T02:28:16.484Z,39.95
2019-04-28T02:29:15.648Z,39.84
2019-04-28T02:30:15.592Z,39.41
2019-04-28T02:31:15.623Z,39.88
2019-04-28T02:32:15.588Z,41.42
2019-04-28T02:33:15.558Z,40.74
2019-04-28T02:34:15.582Z,40.14
2019-04-28T02:35:15.574Z,40.41
2019-04-28T02:36:15.719Z,40.03
2019-04-28T02:37:15.541Z,39.51
2019-04-28T02:38:15.556Z,40.48
2019-04-28T02:39:15.657Z,39.93
2019-04-28T02:40:15.512Z,40.35
2019-04-28T02:41:15.527Z,39.11
2019-04-28T02:42:15.537Z,39.89
2019-04-28T02:43:15.504Z,40.71
2019-04-28T02:44:15.544Z,40.95
2019-04-28T02:45:15.511Z,40.67
2019-04-28T02:46:15.564Z,40.12
2019-04-28T02:47:15.437Z,40.31
2019-04-28T02:48:15.417Z,40.34
2019-04-28T02:49:15.440Z,39.94
2019-04-28T02:50:15.540Z,39.65
2019-04-28T02:51:15.532Z,40.66
2019-04-28T02:52:15.396Z,40.14
2019-04-28T02:53:15.381Z,41.33
2019-04-28T02:54:15.422Z,39.27
2019-04-28T02:55:15.413Z,39.97
2019-04-28T02:56:15.422Z,40.28
2019-04-28T02:57:15.385Z,41.14
2019-04-28T02:58:15.388Z,42.14
2019-04-28T02:59:15.365Z,43.36
2019-04-28T03:00:15.330Z,41.63
2019-04-28T03:01:24.939Z,41.38
2019-04-28T03:02:17.367Z,41.97
2019-04-28T03:03:16.002Z,42.49
2019-04-28T03:04:15.348Z,45.66
2019-04-28T03:05:15.335Z,46.08
2019-04-28T03:06:15.343Z,45.63
2019-04-28T03:07:15.373Z,45.72
2019-04-28T03:08:15.280Z,46.11
2019-04-28T03:09:15.407Z,46.46
2019-04-28T03:10:15.281Z,44.24
2019-04-28T03:11:15.278Z,47.04
2019-04-28T03:12:15.261Z,45.20
2019-04-28T03:13:16.259Z,43.99
2019-04-28T03:14:15.258Z,44.47
2019-04-28T03:15:15.229Z,47.16
2019-04-28T03:16:15.236Z,46.12
2019-04-28T03:17:15.240Z,45.20
2019-04-28T03:18:15.274Z,46.75
2019-04-28T03:19:15.231Z,46.15
2019-04-28T03:20:15.245Z,46.06
2019-04-28T03:21:15.200Z,45.13
2019-04-28T03:22:15.182Z,46.76
2019-04-28T03:23:15.196Z,47.03
2019-04-28T03:24:15.196Z,47.27
2019-04-28T03:25:15.212Z,46.50
2019-04-28T03:26:15.204Z,48.73
2019-04-28T03:27:15.152Z,48.91
2019-04-28T03:28:15.218Z,48.94
2019-04-28T03:29:15.303Z,48.94
2019-04-28T03:30:15.177Z,48.92
2019-04-28T03:31:48.423Z,48.75
2019-04-28T03:32:32.403Z,47.08
2019-04-28T03:33:18.855Z,45.87
2019-04-28T03:34:22.878Z,47.94
2019-04-28T03:35:17.036Z,51.66
2019-04-28T03:36:16.032Z,48.94
2019-04-28T03:37:16.127Z,46.18
2019-04-28T03:38:15.118Z,45.24
2019-04-28T03:39:15.104Z,45.34
2019-04-28T03:40:15.112Z,45.72
2019-04-28T03:41:15.089Z,44.35
2019-04-28T03:42:15.127Z,42.73
2019-04-28T03:43:15.037Z,47.59
2019-04-28T03:44:16.058Z,44.92
2019-04-28T03:45:15.051Z,42.15
2019-04-28T03:46:15.045Z,43.39
2019-04-28T03:47:15.106Z,46.73
2019-04-28T03:48:15.074Z,48.14
2019-04-28T03:49:15.069Z,45.37
2019-04-28T03:50:15.055Z,43.02
2019-04-28T03:51:21.167Z,44.13
2019-04-28T03:52:16.090Z,41.06
2019-04-28T03:53:16.459Z,42.37
2019-04-28T03:54:14.986Z,42.62
2019-04-28T03:55:15.023Z,41.74
2019-04-28T03:56:15.017Z,41.32
2019-04-28T03:57:15.070Z,41.90
2019-04-28T03:58:15.979Z,41.50
2019-04-28T03:59:16.050Z,42.11
2019-04-28T04:00:15.048Z,41.47
2019-04-28T04:01:15.604Z,40.64
2019-04-28T04:02:14.985Z,42.87
2019-04-28T04:03:15.142Z,42.00
2019-04-28T04:04:14.969Z,43.80
2019-04-28T04:05:14.975Z,42.73
2019-04-28T04:06:14.915Z,45.06
2019-04-28T04:07:14.948Z,44.48
2019-04-28T04:08:14.990Z,44.49
2019-04-28T04:09:15.526Z,44.10
2019-04-28T04:10:14.979Z,45.67
2019-04-28T04:11:14.993Z,45.53
2019-04-28T04:12:15.026Z,45.49
2019-04-28T04:13:14.899Z,44.95
2019-04-28T04:14:14.937Z,42.03
2019-04-28T04:15:15.022Z,42.47
2019-04-28T04:16:15.988Z,42.13
2019-04-28T04:17:14.971Z,41.45
2019-04-28T04:18:14.902Z,42.17
2019-04-28T04:19:14.885Z,41.46
2019-04-28T04:20:14.893Z,42.58
2019-04-28T04:21:14.995Z,45.18
2019-04-28T04:22:14.853Z,44.40
2019-04-28T04:23:14.818Z,41.31
2019-04-28T04:24:14.907Z,41.93
2019-04-28T04:25:14.861Z,41.91
2019-04-28T04:26:14.918Z,43.17
2019-04-28T04:27:14.812Z,42.80
2019-04-28T04:28:14.781Z,42.00
2019-04-28T04:29:14.833Z,41.50
2019-04-28T04:30:14.851Z,40.84
2019-04-28T04:31:14.833Z,41.66
2019-04-28T04:32:22.619Z,41.32
2019-04-28T04:33:16.763Z,41.13
2019-04-28T04:34:14.800Z,41.86
2019-04-28T04:35:14.813Z,42.60
2019-04-28T04:36:14.753Z,43.46
2019-04-28T04:37:14.740Z,44.69
2019-04-28T04:38:14.793Z,44.97
2019-04-28T04:39:14.752Z,48.13
2019-04-28T04:40:14.768Z,47.63
2019-04-28T04:41:14.729Z,46.87
2019-04-28T04:42:14.754Z,45.28
2019-04-28T04:43:14.749Z,44.79
2019-04-28T04:44:14.721Z,45.38
2019-04-28T04:45:14.785Z,44.00
2019-04-28T04:46:14.778Z,43.62
2019-04-28T04:47:14.767Z,42.69
2019-04-28T04:48:15.771Z,42.17
2019-04-28T04:49:15.601Z,43.92
2019-04-28T04:50:14.728Z,43.89
2019-04-28T04:51:14.741Z,44.32
2019-04-28T04:52:14.714Z,41.72
2019-04-28T04:53:14.640Z,41.57
2019-04-28T04:54:15.552Z,41.33
2019-04-28T04:55:14.750Z,42.85
2019-04-28T04:56:14.714Z,43.81
2019-04-28T04:57:14.667Z,46.93
2019-04-28T04:58:14.669Z,43.27
2019-04-28T04:59:14.612Z,41.99
2019-04-28T05:00:14.665Z,41.82
2019-04-28T05:01:14.666Z,41.86
2019-04-28T05:02:26.543Z,41.68
2019-04-28T05:03:16.610Z,42.39
2019-04-28T05:05:02.908Z,42.00
2019-04-28T05:05:14.625Z,43.45
2019-04-28T05:06:14.549Z,46.29
2019-04-28T05:11:26.446Z,42.55
2019-04-28T05:12:42.530Z,42.91
2019-04-28T05:13:27.511Z,42.81
2019-04-28T05:14:29.783Z,42.00
2019-04-28T05:15:27.646Z,42.11
2019-04-28T05:16:27.574Z,47.83
2019-04-28T05:17:27.566Z,47.07
2019-04-28T05:18:27.534Z,44.33
2019-04-28T05:19:27.547Z,45.56
2019-04-28T05:20:27.640Z,42.80
2019-04-28T05:21:31.067Z,48.86
2019-04-28T05:22:29.960Z,43.94
2019-04-28T05:23:27.520Z,42.32
2019-04-28T05:24:27.532Z,48.70
2019-04-28T05:25:30.875Z,44.97
2019-04-28T05:26:30.048Z,45.74
2019-04-28T05:28:19.723Z,43.11
2019-04-28T05:28:30.570Z,44.30
2019-04-28T05:29:47.353Z,44.19
2019-04-28T05:30:27.418Z,42.80
2019-04-28T05:31:27.448Z,43.41
2019-04-28T05:32:41.662Z,42.19
2019-04-28T05:33:33.369Z,44.30
2019-04-28T05:34:29.704Z,46.50
2019-04-28T05:35:29.316Z,42.77
2019-04-28T05:36:27.367Z,42.23
2019-04-28T05:37:27.412Z,45.33
2019-04-28T05:38:27.404Z,42.48
2019-04-28T05:39:27.392Z,43.43
2019-04-28T05:40:27.407Z,43.37
2019-04-28T05:41:27.343Z,44.70
2019-04-28T05:42:27.365Z,44.45
2019-04-28T05:43:27.375Z,41.64
2019-04-28T05:44:27.362Z,41.88
2019-04-28T05:45:27.431Z,44.76
2019-04-28T05:46:27.321Z,44.78
2019-04-28T05:47:27.308Z,46.22
2019-04-28T05:48:27.329Z,42.78
2019-04-28T05:49:27.305Z,41.86
2019-04-28T05:50:27.262Z,41.94
2019-04-28T05:51:27.337Z,43.06
2019-04-28T05:52:27.268Z,42.87
2019-04-28T05:53:27.320Z,42.06
2019-04-28T05:54:59.813Z,43.04
2019-04-28T05:55:27.195Z,42.08
2019-04-28T05:56:27.195Z,41.38
2019-04-28T05:57:27.203Z,41.10
2019-04-28T05:58:27.182Z,41.57
2019-04-28T05:59:27.176Z,41.71
2019-04-28T06:00:27.166Z,43.11
2019-04-28T06:01:27.151Z,42.40
2019-04-28T06:02:27.156Z,43.77
2019-04-28T06:03:27.134Z,42.27
2019-04-28T06:04:27.131Z,40.64
2019-04-28T06:05:27.123Z,41.85
2019-04-28T06:06:27.111Z,42.20
2019-04-28T06:07:27.126Z,41.89
2019-04-28T06:08:27.099Z,42.46
2019-04-28T06:09:27.098Z,42.04
2019-04-28T06:10:27.084Z,41.82
2019-04-28T06:11:27.132Z,42.84
2019-04-28T06:12:27.116Z,43.20
2019-04-28T06:13:27.090Z,44.09
2019-04-28T06:14:27.091Z,42.72
2019-04-28T06:15:27.081Z,43.54
2019-04-28T06:16:27.073Z,42.88
2019-04-28T06:17:27.069Z,43.21
2019-04-28T06:18:27.072Z,43.25
2019-04-28T06:19:27.057Z,43.24
2019-04-28T06:20:27.041Z,43.30
2019-04-28T06:21:28.046Z,43.97
2019-04-28T06:22:27.049Z,44.39
2019-04-28T06:23:27.041Z,45.50
2019-04-28T06:24:27.038Z,46.78
2019-04-28T06:25:27.025Z,45.02
2019-04-28T06:26:27.014Z,43.49
2019-04-28T06:27:27.007Z,42.46
2019-04-28T06:28:27.008Z,41.41
2019-04-28T06:29:26.988Z,42.20
2019-04-28T06:30:26.976Z,42.61
2019-04-28T06:31:26.973Z,42.03
2019-04-28T06:32:26.965Z,43.10
2019-04-28T06:33:26.974Z,42.97
2019-04-28T06:34:26.961Z,42.94
2019-04-28T06:35:26.937Z,45.20
2019-04-28T06:36:26.945Z,42.04
2019-04-28T06:37:26.934Z,42.00
2019-04-28T06:38:26.937Z,46.45
2019-04-28T06:39:26.921Z,44.19
2019-04-28T06:40:26.906Z,43.43
2019-04-28T06:41:26.931Z,43.98
2019-04-28T06:42:26.904Z,43.34
2019-04-28T06:43:26.908Z,42.81
2019-04-28T06:44:26.918Z,41.53
2019-04-28T06:45:26.904Z,43.77
2019-04-28T06:46:26.897Z,43.58
2019-04-28T06:47:26.893Z,43.65
2019-04-28T06:48:26.890Z,45.18
2019-04-28T06:49:26.874Z,44.71
2019-04-28T06:50:26.874Z,43.20
2019-04-28T06:51:26.857Z,43.35
2019-04-28T06:52:26.850Z,42.35
2019-04-28T06:53:26.863Z,43.11
2019-04-28T06:54:26.839Z,43.24
2019-04-28T06:55:26.827Z,43.21
2019-04-28T06:56:26.823Z,42.89
2019-04-28T06:57:26.824Z,43.26
2019-04-28T06:58:26.888Z,43.39
2019-04-28T06:59:26.811Z,45.38
2019-04-28T07:00:26.801Z,48.67
2019-04-28T07:01:26.793Z,46.94
2019-04-28T07:02:26.803Z,45.62
2019-04-28T07:03:26.814Z,46.98
2019-04-28T07:04:26.785Z,44.85
2019-04-28T07:05:26.779Z,44.15
2019-04-28T07:06:26.773Z,43.82
2019-04-28T07:07:26.760Z,42.06
2019-04-28T07:08:26.759Z,41.52
2019-04-28T07:09:26.833Z,43.69
2019-04-28T07:10:26.741Z,44.57
2019-04-28T07:11:26.732Z,44.05
2019-04-28T07:12:26.753Z,45.99
2019-04-28T07:13:26.744Z,47.00
2019-04-28T07:14:26.784Z,47.27
2019-04-28T07:15:26.728Z,45.45
2019-04-28T07:16:26.722Z,44.46
2019-04-28T07:17:26.712Z,43.33
2019-04-28T07:18:26.719Z,43.19
2019-04-28T07:19:26.712Z,44.15
2019-04-28T07:20:26.693Z,43.40
2019-04-28T07:21:26.684Z,45.82
2019-04-28T07:22:26.677Z,41.60
2019-04-28T07:23:26.671Z,42.98
2019-04-28T07:24:26.674Z,43.19
2019-04-28T07:25:26.660Z,44.20
2019-04-28T07:26:26.668Z,45.60
2019-04-28T07:27:26.643Z,42.71
2019-04-28T07:28:26.648Z,41.99
2019-04-28T07:29:26.641Z,41.82
2019-04-28T07:30:26.618Z,45.67
2019-04-28T07:31:26.610Z,48.29
2019-04-28T07:32:26.609Z,42.18
2019-04-28T07:33:35.920Z,43.41
2019-04-28T07:34:28.605Z,42.77
2019-04-28T07:35:26.585Z,42.15
2019-04-28T07:36:26.577Z,44.35
2019-04-28T07:37:26.572Z,47.59
2019-04-28T07:38:26.562Z,45.95
2019-04-28T07:39:26.576Z,45.25
2019-04-28T07:40:26.554Z,42.20
2019-04-28T07:41:26.550Z,41.61
2019-04-28T07:42:26.545Z,44.47
2019-04-28T07:43:26.544Z,44.62
2019-04-28T07:44:26.536Z,42.59
2019-04-28T07:45:26.515Z,43.29
2019-04-28T07:46:26.504Z,43.85
2019-04-28T07:47:26.497Z,42.66
2019-04-28T07:48:26.488Z,41.33
2019-04-28T07:49:26.530Z,41.33
2019-04-28T07:50:26.472Z,41.76
2019-04-28T07:51:26.465Z,41.05
2019-04-28T07:52:26.456Z,40.67
2019-04-28T07:53:26.448Z,41.08
2019-04-28T07:54:26.452Z,41.40
2019-04-28T07:55:26.432Z,44.25
2019-04-28T07:56:26.425Z,43.76
2019-04-28T07:57:26.434Z,48.71
2019-04-28T07:58:26.417Z,56.06
2019-04-28T07:59:26.417Z,55.83
2019-04-28T08:00:26.396Z,52.27
2019-04-28T08:01:26.385Z,41.89
2019-04-28T08:02:26.382Z,43.03
2019-04-28T08:03:26.469Z,42.47
2019-04-28T08:04:26.380Z,45.76
2019-04-28T08:05:26.364Z,43.47
2019-04-28T08:06:27.063Z,44.72
2019-04-28T08:07:27.336Z,44.62
2019-04-28T08:08:26.362Z,45.09
2019-04-28T08:09:26.367Z,41.83
2019-04-28T08:10:26.375Z,43.47
2019-04-28T08:11:26.335Z,42.21
2019-04-28T08:12:26.330Z,42.20
2019-04-28T08:13:26.327Z,42.18
2019-04-28T08:14:26.314Z,42.45
2019-04-28T08:15:26.328Z,41.20
2019-04-28T08:16:26.311Z,43.89
2019-04-28T08:17:26.305Z,45.42
2019-04-28T08:18:26.302Z,43.91
2019-04-28T08:19:26.320Z,45.04
2019-04-28T08:20:26.301Z,43.29
2019-04-28T08:21:26.277Z,43.47
2019-04-28T08:22:26.278Z,44.13
2019-04-28T08:23:26.319Z,42.78
2019-04-28T08:24:26.311Z,45.51
2019-04-28T08:25:26.271Z,51.90
2019-04-28T08:26:26.252Z,46.57
2019-04-28T08:27:26.258Z,45.28
2019-04-28T08:28:26.275Z,45.93
2019-04-28T08:29:26.255Z,49.02
2019-04-28T08:30:26.279Z,45.36
2019-04-28T08:31:26.263Z,42.65
2019-04-28T08:32:26.319Z,45.21
2019-04-28T08:33:26.264Z,45.54
2019-04-28T08:34:27.038Z,45.22
2019-04-28T08:35:26.691Z,44.10
2019-04-28T08:36:26.261Z,45.49
2019-04-28T08:37:26.442Z,44.50
2019-04-28T08:38:26.333Z,43.39
2019-04-28T08:39:26.823Z,43.78
2019-04-28T08:40:27.358Z,45.75
2019-04-28T08:41:26.424Z,45.32
2019-04-28T08:42:26.213Z,43.66
2019-04-28T08:43:26.240Z,43.39
2019-04-28T08:44:26.142Z,43.08
2019-04-28T08:45:26.161Z,44.52
2019-04-28T08:46:26.129Z,44.47
2019-04-28T08:47:26.112Z,44.92
2019-04-28T08:48:26.191Z,43.81
2019-04-28T08:49:27.041Z,43.63
2019-04-28T08:50:26.167Z,45.26
2019-04-28T08:51:26.435Z,44.99
2019-04-28T08:52:26.117Z,44.16
2019-04-28T08:53:26.367Z,43.92
2019-04-28T08:54:26.170Z,44.96
2019-04-28T08:55:26.084Z,47.23
2019-04-28T08:56:26.069Z,45.30
2019-04-28T08:57:26.038Z,46.11
2019-04-28T08:58:26.035Z,44.28
2019-04-28T08:59:26.046Z,43.89
2019-04-28T09:00:26.272Z,44.78
2019-04-28T09:01:26.170Z,43.46
2019-04-28T09:02:26.138Z,43.75
2019-04-28T09:03:26.255Z,45.83
2019-04-28T09:04:26.297Z,44.07
2019-04-28T09:05:27.046Z,44.97
2019-04-28T09:06:26.095Z,45.50
2019-04-28T09:07:26.240Z,44.15
2019-04-28T09:08:26.006Z,42.58
2019-04-28T09:09:26.118Z,43.11
2019-04-28T09:10:26.218Z,42.10
2019-04-28T09:11:26.039Z,42.34
2019-04-28T09:12:26.066Z,43.52
2019-04-28T09:13:26.807Z,42.74
2019-04-28T09:14:26.152Z,42.58
2019-04-28T09:15:25.994Z,43.41
2019-04-28T09:16:26.048Z,43.41
2019-04-28T09:17:26.155Z,44.88
2019-04-28T09:18:26.176Z,42.73
2019-04-28T09:19:26.186Z,45.22
2019-04-28T09:20:26.136Z,44.31
2019-04-28T09:21:25.971Z,46.14
2019-04-28T09:22:25.998Z,45.10
2019-04-28T09:23:25.927Z,44.36
2019-04-28T09:24:25.892Z,46.55
2019-04-28T09:25:26.073Z,44.79
2019-04-28T09:26:26.045Z,45.12
2019-04-28T09:27:25.995Z,54.66
2019-04-28T09:28:25.894Z,48.61
2019-04-28T09:29:25.874Z,44.44
2019-04-28T09:30:25.868Z,44.63
2019-04-28T09:31:25.964Z,44.71
2019-04-28T09:32:26.013Z,47.59
2019-04-28T09:33:25.929Z,44.31
2019-04-28T09:34:28.419Z,45.44
2019-04-28T09:35:27.025Z,44.96
2019-04-28T09:36:25.856Z,50.17
2019-04-28T09:37:25.820Z,46.02
2019-04-28T09:38:25.820Z,46.04
2019-04-28T09:39:25.999Z,43.42
2019-04-28T09:40:25.806Z,42.92
2019-04-28T09:41:25.810Z,46.17
2019-04-28T09:42:25.835Z,45.51
2019-04-28T09:43:25.778Z,44.86
2019-04-28T09:44:25.824Z,44.88
2019-04-28T09:45:25.840Z,43.52
2019-04-28T09:46:26.076Z,42.98
2019-04-28T09:47:25.795Z,43.71
2019-04-28T09:48:26.028Z,44.09
2019-04-28T09:49:25.910Z,44.24
2019-04-28T09:50:26.018Z,51.30
2019-04-28T09:51:25.761Z,47.21
2019-04-28T09:52:25.861Z,47.17
2019-04-28T09:53:25.732Z,45.27
2019-04-28T09:54:25.910Z,45.30
2019-04-28T09:55:25.807Z,45.04
2019-04-28T09:56:25.774Z,44.84
2019-04-28T09:57:25.715Z,49.33
2019-04-28T09:58:25.724Z,45.53
2019-04-28T09:59:25.714Z,46.18
2019-04-28T10:00:25.705Z,46.73
2019-04-28T10:01:25.729Z,43.45
2019-04-28T10:02:25.824Z,44.66
2019-04-28T10:03:25.689Z,46.57
2019-04-28T10:04:25.935Z,44.16
2019-04-28T10:05:25.657Z,43.45
2019-04-28T10:06:25.682Z,42.92
2019-04-28T10:07:25.639Z,45.53
2019-04-28T10:08:25.666Z,42.83
2019-04-28T10:09:25.651Z,45.09
2019-04-28T10:10:25.627Z,44.13
2019-04-28T10:11:30.729Z,45.12
2019-04-28T10:12:27.676Z,44.37
2019-04-28T10:13:26.702Z,42.88
2019-04-28T10:14:25.655Z,43.80
2019-04-28T10:15:25.703Z,46.00
2019-04-28T10:16:25.606Z,44.60
2019-04-28T10:17:25.567Z,45.60
2019-04-28T10:18:26.552Z,48.53
2019-04-28T10:19:25.546Z,45.83
2019-04-28T10:20:25.546Z,51.26
2019-04-28T10:21:25.556Z,49.35
2019-04-28T10:22:25.518Z,47.21
2019-04-28T10:23:25.516Z,48.63
2019-04-28T10:24:25.508Z,46.28
2019-04-28T10:25:25.510Z,45.17
2019-04-28T10:26:25.501Z,46.97
2019-04-28T10:27:25.513Z,49.31
2019-04-28T10:28:25.490Z,49.17
2019-04-28T10:29:25.482Z,46.61
2019-04-28T10:30:25.471Z,48.49
2019-04-28T10:31:25.465Z,48.53
2019-04-28T10:32:25.464Z,46.54
2019-04-28T10:33:25.465Z,45.66
2019-04-28T10:34:25.455Z,46.51
2019-04-28T10:35:25.441Z,44.02
2019-04-28T10:36:25.426Z,45.25
2019-04-28T10:37:25.439Z,44.54
2019-04-28T10:38:25.410Z,44.55
2019-04-28T10:39:25.423Z,45.82
2019-04-28T10:40:25.402Z,46.67
2019-04-28T10:41:25.408Z,45.80
2019-04-28T10:42:25.396Z,45.67
2019-04-28T10:43:25.386Z,46.04
2019-04-28T10:44:25.407Z,45.85
2019-04-28T10:45:25.359Z,46.61
2019-04-28T10:46:25.353Z,46.13
2019-04-28T10:47:25.358Z,46.11
2019-04-28T10:48:25.345Z,45.71
2019-04-28T10:49:25.331Z,45.53
2019-04-28T10:50:25.417Z,46.35
2019-04-28T10:51:25.337Z,46.20
2019-04-28T10:52:25.338Z,44.68
2019-04-28T10:53:25.307Z,44.26
2019-04-28T10:54:25.295Z,46.44
2019-04-28T10:55:25.306Z,44.55
2019-04-28T10:56:25.279Z,42.62
2019-04-28T10:57:25.305Z,44.61
2019-04-28T10:58:25.281Z,43.19
2019-04-28T10:59:25.264Z,45.19
2019-04-28T11:00:25.275Z,43.44
2019-04-28T11:01:25.273Z,42.91
2019-04-28T11:02:25.276Z,43.40
2019-04-28T11:03:25.240Z,42.91
2019-04-28T11:04:25.247Z,42.59
2019-04-28T11:05:25.238Z,43.82
2019-04-28T11:06:25.230Z,45.53
2019-04-28T11:07:25.233Z,47.07
2019-04-28T11:08:25.215Z,46.54
2019-04-28T11:09:30.703Z,46.32
2019-04-28T11:10:27.199Z,48.18
2019-04-28T11:11:25.197Z,48.40
2019-04-28T11:12:25.205Z,46.02
2019-04-28T11:13:25.170Z,46.47
2019-04-28T11:14:25.167Z,45.14
2019-04-28T11:15:25.160Z,41.94
2019-04-28T11:16:25.148Z,43.57
2019-04-28T11:17:25.180Z,41.77
2019-04-28T11:18:25.145Z,41.94
2019-04-28T11:19:25.124Z,43.15
2019-04-28T11:20:25.363Z,44.51
2019-04-28T11:21:26.099Z,45.35
2019-04-28T11:22:25.686Z,44.30
2019-04-28T11:23:25.109Z,46.79
2019-04-28T11:24:25.106Z,48.66
2019-04-28T11:25:25.083Z,52.08
2019-04-28T11:26:25.093Z,54.63
2019-04-28T11:27:25.084Z,55.74
2019-04-28T11:28:25.100Z,51.38
2019-04-28T11:29:25.083Z,45.72
2019-04-28T11:30:25.077Z,43.46
2019-04-28T11:31:25.065Z,41.77
2019-04-28T11:32:25.057Z,44.59
2019-04-28T11:33:25.088Z,48.15
2019-04-28T11:34:25.061Z,43.57
2019-04-28T11:35:25.059Z,44.48
2019-04-28T11:36:25.075Z,47.42
2019-04-28T11:37:25.078Z,45.54
2019-04-28T11:38:25.077Z,45.02
2019-04-28T11:39:25.049Z,48.59
2019-04-28T11:40:25.037Z,50.45
2019-04-28T11:41:25.030Z,46.49
2019-04-28T11:42:25.038Z,48.34
2019-04-28T11:43:25.027Z,50.07
2019-04-28T11:44:25.011Z,46.77
2019-04-28T11:45:25.002Z,44.16
2019-04-28T11:46:24.989Z,43.67
2019-04-28T11:47:24.981Z,44.38
2019-04-28T11:48:24.993Z,43.70
2019-04-28T11:49:24.973Z,44.16
2019-04-28T11:50:24.964Z,44.54
2019-04-28T11:51:24.958Z,43.76
2019-04-28T11:52:24.946Z,44.70
2019-04-28T11:53:24.955Z,44.07
2019-04-28T11:54:24.937Z,44.63
2019-04-28T11:55:57.418Z,44.90
2019-04-28T11:56:24.920Z,47.94
2019-04-28T11:57:24.914Z,46.91
2019-04-28T11:58:24.922Z,47.47
2019-04-28T11:59:24.896Z,47.24
2019-04-28T12:00:24.955Z,48.26
2019-04-28T12:01:24.906Z,49.98
2019-04-28T12:02:24.918Z,52.14
2019-04-28T12:03:24.924Z,51.40
2019-04-28T12:04:24.964Z,46.97
2019-04-28T12:05:34.386Z,49.51
2019-04-28T12:06:26.872Z,47.09
2019-04-28T12:07:24.845Z,49.67
2019-04-28T12:08:24.887Z,47.73
2019-04-28T12:09:24.837Z,47.00
2019-04-28T12:10:24.827Z,46.61
2019-04-28T12:11:24.807Z,49.40
2019-04-28T12:12:24.832Z,49.82
2019-04-28T12:13:24.807Z,49.13
2019-04-28T12:14:24.808Z,49.69
2019-04-28T12:15:24.812Z,47.29
2019-04-28T12:16:24.788Z,48.27
2019-04-28T12:17:24.771Z,47.75
2019-04-28T12:18:24.785Z,46.31
2019-04-28T12:19:24.779Z,48.22
2019-04-28T12:20:24.743Z,47.44
2019-04-28T12:21:24.737Z,51.66
2019-04-28T12:22:24.753Z,52.13
2019-04-28T12:23:24.734Z,51.76
2019-04-28T12:24:24.753Z,55.90
2019-04-28T12:25:24.752Z,52.92
2019-04-28T12:26:24.717Z,45.97
2019-04-28T12:27:24.706Z,44.41
2019-04-28T12:28:24.706Z,45.33
2019-04-28T12:29:24.723Z,47.19
2019-04-28T12:30:24.687Z,48.83
2019-04-28T12:31:24.703Z,51.89
2019-04-28T12:32:24.713Z,48.61
2019-04-28T12:33:24.672Z,48.71
2019-04-28T12:34:24.683Z,46.74
2019-04-28T12:35:24.684Z,49.79
2019-04-28T12:36:24.673Z,49.77
2019-04-28T12:37:24.654Z,51.05
2019-04-28T12:38:24.673Z,48.39
2019-04-28T12:39:24.694Z,47.40
2019-04-28T12:40:24.731Z,46.48
2019-04-28T12:41:24.640Z,47.37
2019-04-28T12:42:24.620Z,45.54
2019-04-28T12:43:24.624Z,45.59
2019-04-28T12:44:24.663Z,47.23
2019-04-28T12:45:34.516Z,47.44
2019-04-28T12:46:26.627Z,46.02
2019-04-28T12:47:24.593Z,46.03
2019-04-28T12:48:24.573Z,45.96
2019-04-28T12:49:24.562Z,46.73
2019-04-28T12:50:24.580Z,48.44
2019-04-28T12:51:24.572Z,49.88
2019-04-28T12:52:24.557Z,51.49
2019-04-28T12:53:24.548Z,50.24
2019-04-28T12:54:24.548Z,47.71
2019-04-28T12:55:24.535Z,45.98
2019-04-28T12:56:24.508Z,45.33
2019-04-28T12:57:25.139Z,45.64
2019-04-28T12:58:24.507Z,45.75
2019-04-28T12:59:24.503Z,45.77
2019-04-28T13:00:24.613Z,44.84
2019-04-28T13:01:24.498Z,44.08
2019-04-28T13:02:24.506Z,44.22